Terminal Aerodrome Forecast
Issued by NWS

Home | Current Version | Previous Version | Text Only | Print | Product List | Glossary On
Versions: 1 2 3 4 5 6 7 8 9 10 11 12 13 14 15 16 17 18 19 20 21 22 23 24 25 26 27 28 29 30 31
000
FTAK31 PANC 221739
TAFAEN
TAF
PAEN 221739Z 2218/2318 03005KT P6SM -SHSN OVC025
     FM222100 VRB03KT 4SM -SN OVC012
     FM230400 00000KT P6SM -SHSN OVC015
     FM231200 00000KT 2SM BR SCT005 OVC012=

USA.gov is the U.S. government's official web portal to all federal, state and local government web resources and services.